sensor_id;sensor_type;location;lat;lon;timestamp;pressure;altitude;pressure_sealevel;temperature;humidity
58471;BME280;44258;51.288;12.068;2022-09-09T00:01:43;99999.75;;;16.57;58.92
58471;BME280;44258;51.288;12.068;2022-09-09T00:04:19;100002.31;;;16.59;58.83
58471;BME280;44258;51.288;12.068;2022-09-09T00:06:59;100004.28;;;16.57;58.85
58471;BME280;44258;51.288;12.068;2022-09-09T00:09:31;100016.03;;;16.57;58.79
58471;BME280;44258;51.288;12.068;2022-09-09T00:12:10;100009.28;;;16.51;58.99
58471;BME280;44258;51.288;12.068;2022-09-09T00:14:43;100010.97;;;16.52;58.85
58471;BME280;44258;51.288;12.068;2022-09-09T00:17:20;100000.00;;;16.54;58.75
58471;BME280;44258;51.288;12.068;2022-09-09T00:19:57;100000.25;;;16.51;58.67
58471;BME280;44258;51.288;12.068;2022-09-09T00:22:28;99996.44;;;16.53;58.55
58471;BME280;44258;51.288;12.068;2022-09-09T00:25:02;99992.97;;;16.51;58.67
58471;BME280;44258;51.288;12.068;2022-09-09T00:27:39;99991.84;;;16.54;58.45
58471;BME280;44258;51.288;12.068;2022-09-09T00:30:14;99995.53;;;16.53;58.56
58471;BME280;44258;51.288;12.068;2022-09-09T00:32:45;99997.28;;;16.54;58.30
58471;BME280;44258;51.288;12.068;2022-09-09T00:35:21;99996.06;;;16.47;58.30
58471;BME280;44258;51.288;12.068;2022-09-09T00:37:51;99993.34;;;16.47;58.20
58471;BME280;44258;51.288;12.068;2022-09-09T00:40:26;99997.34;;;16.43;58.43
58471;BME280;44258;51.288;12.068;2022-09-09T00:43:03;99992.19;;;16.40;58.48
58471;BME280;44258;51.288;12.068;2022-09-09T00:46:02;99992.44;;;16.37;58.24
58471;BME280;44258;51.288;12.068;2022-09-09T00:48:39;99994.28;;;16.36;58.16
58471;BME280;44258;51.288;12.068;2022-09-09T00:51:15;99995.66;;;16.30;58.41
58471;BME280;44258;51.288;12.068;2022-09-09T00:54:06;99997.94;;;16.14;58.95
58471;BME280;44258;51.288;12.068;2022-09-09T00:56:41;99995.91;;;16.06;59.14
58471;BME280;44258;51.288;12.068;2022-09-09T00:59:21;100000.38;;;15.96;59.72
58471;BME280;44258;51.288;12.068;2022-09-09T01:01:53;100012.31;;;15.93;59.57
58471;BME280;44258;51.288;12.068;2022-09-09T01:04:27;100004.81;;;15.86;59.83
58471;BME280;44258;51.288;12.068;2022-09-09T01:07:01;100004.94;;;15.95;59.67
58471;BME280;44258;51.288;12.068;2022-09-09T01:09:37;99994.81;;;15.98;59.13
58471;BME280;44258;51.288;12.068;2022-09-09T01:12:13;99997.69;;;15.85;59.72
58471;BME280;44258;51.288;12.068;2022-09-09T01:14:44;99999.56;;;15.84;59.72
58471;BME280;44258;51.288;12.068;2022-09-09T01:17:17;100002.50;;;15.81;59.83
58471;BME280;44258;51.288;12.068;2022-09-09T01:19:58;100009.97;;;15.68;60.20
58471;BME280;44258;51.288;12.068;2022-09-09T01:22:34;100009.56;;;15.72;59.84
58471;BME280;44258;51.288;12.068;2022-09-09T01:25:20;100006.03;;;15.61;60.41
58471;BME280;44258;51.288;12.068;2022-09-09T01:27:52;99995.19;;;15.61;60.20
58471;BME280;44258;51.288;12.068;2022-09-09T01:30:21;99998.63;;;15.63;60.06
58471;BME280;44258;51.288;12.068;2022-09-09T01:32:50;99999.00;;;15.58;60.24
58471;BME280;44258;51.288;12.068;2022-09-09T01:35:35;100000.88;;;15.46;60.75
58471;BME280;44258;51.288;12.068;2022-09-09T01:38:03;99995.78;;;15.64;60.41
58471;BME280;44258;51.288;12.068;2022-09-09T01:40:31;99986.44;;;15.57;60.34
58471;BME280;44258;51.288;12.068;2022-09-09T01:42:59;99987.31;;;15.46;60.55
58471;BME280;44258;51.288;12.068;2022-09-09T01:45:26;99984.72;;;15.45;60.71
58471;BME280;44258;51.288;12.068;2022-09-09T01:47:53;99987.84;;;15.40;60.78
58471;BME280;44258;51.288;12.068;2022-09-09T01:50:20;99992.03;;;15.33;60.99
58471;BME280;44258;51.288;12.068;2022-09-09T01:52:51;99980.94;;;15.36;60.83
58471;BME280;44258;51.288;12.068;2022-09-09T01:55:23;99977.25;;;15.37;60.93
58471;BME280;44258;51.288;12.068;2022-09-09T01:58:06;99978.47;;;15.44;60.84
58471;BME280;44258;51.288;12.068;2022-09-09T02:00:41;99980.28;;;15.55;60.48
58471;BME280;44258;51.288;12.068;2022-09-09T02:03:18;99984.50;;;15.48;60.75
58471;BME280;44258;51.288;12.068;2022-09-09T02:05:53;99987.81;;;15.51;60.30
58471;BME280;44258;51.288;12.068;2022-09-09T02:08:31;99987.56;;;15.54;60.36
58471;BME280;44258;51.288;12.068;2022-09-09T02:11:03;99991.28;;;15.53;60.62
58471;BME280;44258;51.288;12.068;2022-09-09T02:13:35;99987.94;;;15.50;60.46
58471;BME280;44258;51.288;12.068;2022-09-09T02:16:06;99983.59;;;15.59;60.23
58471;BME280;44258;51.288;12.068;2022-09-09T02:18:37;99990.66;;;15.50;60.69
58471;BME280;44258;51.288;12.068;2022-09-09T02:21:07;99987.44;;;15.45;60.83
58471;BME280;44258;51.288;12.068;2022-09-09T02:23:36;99994.84;;;15.31;60.87
58471;BME280;44258;51.288;12.068;2022-09-09T02:26:05;99998.31;;;15.33;60.88
58471;BME280;44258;51.288;12.068;2022-09-09T02:28:37;99995.22;;;15.38;60.71
58471;BME280;44258;51.288;12.068;2022-09-09T02:31:05;99991.91;;;15.46;60.43
58471;BME280;44258;51.288;12.068;2022-09-09T02:33:37;100004.59;;;15.45;60.33
58471;BME280;44258;51.288;12.068;2022-09-09T02:36:07;99998.78;;;15.39;60.59
58471;BME280;44258;51.288;12.068;2022-09-09T02:38:38;100000.91;;;15.35;60.62
58471;BME280;44258;51.288;12.068;2022-09-09T02:41:07;99998.16;;;15.24;61.02
58471;BME280;44258;51.288;12.068;2022-09-09T02:43:35;99997.94;;;15.27;60.85
58471;BME280;44258;51.288;12.068;2022-09-09T02:46:08;99993.38;;;15.27;61.03
58471;BME280;44258;51.288;12.068;2022-09-09T02:48:50;99994.75;;;15.33;60.53
58471;BME280;44258;51.288;12.068;2022-09-09T02:51:18;99997.66;;;15.52;60.10
58471;BME280;44258;51.288;12.068;2022-09-09T02:53:58;99995.72;;;15.43;59.93
58471;BME280;44258;51.288;12.068;2022-09-09T02:56:29;99990.44;;;15.42;60.09
58471;BME280;44258;51.288;12.068;2022-09-09T02:59:03;99997.81;;;15.40;60.22
58471;BME280;44258;51.288;12.068;2022-09-09T03:01:30;99986.47;;;15.34;60.46
58471;BME280;44258;51.288;12.068;2022-09-09T03:03:57;99987.84;;;15.29;60.63
58471;BME280;44258;51.288;12.068;2022-09-09T03:06:23;99981.91;;;15.24;60.73
58471;BME280;44258;51.288;12.068;2022-09-09T03:08:50;99996.19;;;15.14;61.05
58471;BME280;44258;51.288;12.068;2022-09-09T03:11:17;99992.88;;;15.11;61.19
58471;BME280;44258;51.288;12.068;2022-09-09T03:13:44;99997.78;;;15.06;61.08
58471;BME280;44258;51.288;12.068;2022-09-09T03:16:12;99992.25;;;14.96;61.32
58471;BME280;44258;51.288;12.068;2022-09-09T03:18:40;99999.66;;;14.83;61.75
58471;BME280;44258;51.288;12.068;2022-09-09T03:21:07;99995.69;;;14.75;61.94
58471;BME280;44258;51.288;12.068;2022-09-09T03:23:34;99997.81;;;14.72;62.08
58471;BME280;44258;51.288;12.068;2022-09-09T03:26:01;99998.75;;;14.71;62.25
58471;BME280;44258;51.288;12.068;2022-09-09T03:28:28;99994.22;;;14.71;62.06
58471;BME280;44258;51.288;12.068;2022-09-09T03:30:59;100000.13;;;14.77;61.98
58471;BME280;44258;51.288;12.068;2022-09-09T03:33:27;99994.22;;;14.83;61.75
58471;BME280;44258;51.288;12.068;2022-09-09T03:35:54;99993.47;;;14.92;61.28
58471;BME280;44258;51.288;12.068;2022-09-09T03:38:22;99994.84;;;14.98;61.25
58471;BME280;44258;51.288;12.068;2022-09-09T03:40:50;99987.94;;;14.93;61.34
58471;BME280;44258;51.288;12.068;2022-09-09T03:43:18;99997.06;;;14.92;61.33
58471;BME280;44258;51.288;12.068;2022-09-09T03:45:46;99997.19;;;14.91;61.42
58471;BME280;44258;51.288;12.068;2022-09-09T03:48:14;99982.06;;;14.88;61.44
58471;BME280;44258;51.288;12.068;2022-09-09T03:50:45;99986.59;;;14.88;61.38
58471;BME280;44258;51.288;12.068;2022-09-09T03:53:12;99988.06;;;14.92;61.11
58471;BME280;44258;51.288;12.068;2022-09-09T03:55:43;99981.31;;;14.86;61.38
58471;BME280;44258;51.288;12.068;2022-09-09T03:58:11;99981.31;;;14.86;61.23
58471;BME280;44258;51.288;12.068;2022-09-09T04:00:38;99989.69;;;14.83;61.53
58471;BME280;44258;51.288;12.068;2022-09-09T04:03:07;99982.66;;;14.81;61.67
58471;BME280;44258;51.288;12.068;2022-09-09T04:05:34;99986.97;;;14.83;61.73
58471;BME280;44258;51.288;12.068;2022-09-09T04:08:06;99989.06;;;14.80;61.60
58471;BME280;44258;51.288;12.068;2022-09-09T04:10:33;100000.50;;;14.83;61.45
58471;BME280;44258;51.288;12.068;2022-09-09T04:13:01;99995.34;;;14.80;61.63
58471;BME280;44258;51.288;12.068;2022-09-09T04:15:28;100003.09;;;14.85;61.78
58471;BME280;44258;51.288;12.068;2022-09-09T04:17:54;100005.19;;;14.92;61.71
58471;BME280;44258;51.288;12.068;2022-09-09T04:20:21;100006.06;;;14.93;61.93
58471;BME280;44258;51.288;12.068;2022-09-09T04:22:48;100008.91;;;15.03;61.89
58471;BME280;44258;51.288;12.068;2022-09-09T04:25:16;100001.38;;;15.06;61.72
58471;BME280;44258;51.288;12.068;2022-09-09T04:27:43;99995.59;;;15.11;61.77
58471;BME280;44258;51.288;12.068;2022-09-09T04:30:10;99992.88;;;15.11;61.76
58471;BME280;44258;51.288;12.068;2022-09-09T04:32:37;99994.38;;;15.15;61.59
58471;BME280;44258;51.288;12.068;2022-09-09T04:35:04;99993.59;;;15.24;61.32
58471;BME280;44258;51.288;12.068;2022-09-09T04:37:30;99992.97;;;15.32;61.07
58471;BME280;44258;51.288;12.068;2022-09-09T04:39:57;99998.53;;;15.30;61.23
58471;BME280;44258;51.288;12.068;2022-09-09T04:42:29;99998.78;;;15.39;61.08
58471;BME280;44258;51.288;12.068;2022-09-09T04:44:55;99992.00;;;15.44;61.21
58471;BME280;44258;51.288;12.068;2022-09-09T04:47:22;100000.88;;;15.46;61.28
58471;BME280;44258;51.288;12.068;2022-09-09T04:49:48;100007.53;;;15.53;61.15
58471;BME280;44258;51.288;12.068;2022-09-09T04:52:15;99992.84;;;15.56;61.30
58471;BME280;44258;51.288;12.068;2022-09-09T04:54:43;100000.88;;;15.58;61.28
58471;BME280;44258;51.288;12.068;2022-09-09T04:57:11;100002.06;;;15.65;61.33
58471;BME280;44258;51.288;12.068;2022-09-09T04:59:38;100002.28;;;15.73;61.36
58471;BME280;44258;51.288;12.068;2022-09-09T05:02:05;100007.94;;;15.81;60.94
58471;BME280;44258;51.288;12.068;2022-09-09T05:04:32;100010.63;;;15.92;60.72
58471;BME280;44258;51.288;12.068;2022-09-09T05:06:59;100013.94;;;15.96;60.79
58471;BME280;44258;51.288;12.068;2022-09-09T05:09:25;100009.38;;;15.97;61.00
58471;BME280;44258;51.288;12.068;2022-09-09T05:11:52;100011.56;;;16.03;60.85
58471;BME280;44258;51.288;12.068;2022-09-09T05:14:18;100013.63;;;16.10;60.41
58471;BME280;44258;51.288;12.068;2022-09-09T05:16:46;100014.94;;;16.16;60.47
58471;BME280;44258;51.288;12.068;2022-09-09T05:19:14;100019.84;;;16.22;60.26
58471;BME280;44258;51.288;12.068;2022-09-09T05:21:44;100013.56;;;16.01;60.66
58471;BME280;44258;51.288;12.068;2022-09-09T05:24:11;100011.91;;;16.09;60.58
58471;BME280;44258;51.288;12.068;2022-09-09T05:26:37;100014.72;;;16.19;60.40
58471;BME280;44258;51.288;12.068;2022-09-09T05:29:03;100021.59;;;16.23;59.87
58471;BME280;44258;51.288;12.068;2022-09-09T05:31:31;100017.53;;;16.29;59.91
58471;BME280;44258;51.288;12.068;2022-09-09T05:33:59;100027.25;;;16.20;60.17
58471;BME280;44258;51.288;12.068;2022-09-09T05:36:26;100030.47;;;16.25;59.81
58471;BME280;44258;51.288;12.068;2022-09-09T05:38:52;100026.63;;;16.28;59.59
58471;BME280;44258;51.288;12.068;2022-09-09T05:41:19;100028.38;;;16.29;59.54
58471;BME280;44258;51.288;12.068;2022-09-09T05:43:48;100015.31;;;16.23;59.66
58471;BME280;44258;51.288;12.068;2022-09-09T05:46:16;100030.47;;;16.25;59.97
58471;BME280;44258;51.288;12.068;2022-09-09T05:48:44;100027.63;;;16.27;59.68
58471;BME280;44258;51.288;12.068;2022-09-09T05:51:15;100023.16;;;16.37;59.81
58471;BME280;44258;51.288;12.068;2022-09-09T05:53:43;100022.47;;;16.45;59.10
58471;BME280;44258;51.288;12.068;2022-09-09T05:56:12;100027.88;;;16.35;58.97
58471;BME280;44258;51.288;12.068;2022-09-09T05:58:40;100032.44;;;16.23;59.32
58471;BME280;44258;51.288;12.068;2022-09-09T06:01:11;100025.56;;;16.19;59.46
58471;BME280;44258;51.288;12.068;2022-09-09T06:03:40;100020.59;;;16.24;59.54
58471;BME280;44258;51.288;12.068;2022-09-09T06:06:11;100029.25;;;16.29;59.62
58471;BME280;44258;51.288;12.068;2022-09-09T06:08:40;100032.03;;;16.39;59.66
58471;BME280;44258;51.288;12.068;2022-09-09T06:11:10;100029.00;;;16.53;59.26
58471;BME280;44258;51.288;12.068;2022-09-09T06:13:38;100021.19;;;16.60;58.85
58471;BME280;44258;51.288;12.068;2022-09-09T06:16:06;100019.66;;;16.67;58.95
58471;BME280;44258;51.288;12.068;2022-09-09T06:18:34;100024.41;;;16.75;58.70
58471;BME280;44258;51.288;12.068;2022-09-09T06:21:02;100029.25;;;16.71;58.56
58471;BME280;44258;51.288;12.068;2022-09-09T06:23:30;100018.53;;;16.70;58.88
58471;BME280;44258;51.288;12.068;2022-09-09T06:26:03;100027.00;;;16.77;59.15
58471;BME280;44258;51.288;12.068;2022-09-09T06:28:31;100011.63;;;16.87;58.53
58471;BME280;44258;51.288;12.068;2022-09-09T06:30:58;100028.38;;;16.92;58.63
58471;BME280;44258;51.288;12.068;2022-09-09T06:33:25;100023.94;;;16.91;58.68
58471;BME280;44258;51.288;12.068;2022-09-09T06:35:52;100025.56;;;17.03;58.63
58471;BME280;44258;51.288;12.068;2022-09-09T06:38:19;100024.91;;;17.11;58.23
58471;BME280;44258;51.288;12.068;2022-09-09T06:40:51;100022.25;;;17.21;58.08
58471;BME280;44258;51.288;12.068;2022-09-09T06:43:19;100018.44;;;17.33;57.53
58471;BME280;44258;51.288;12.068;2022-09-09T06:45:52;100024.31;;;17.38;57.91
58471;BME280;44258;51.288;12.068;2022-09-09T06:48:19;100023.66;;;17.56;57.40
58471;BME280;44258;51.288;12.068;2022-09-09T06:50:46;100019.78;;;17.58;56.76
58471;BME280;44258;51.288;12.068;2022-09-09T06:53:15;100020.78;;;17.47;56.99
58471;BME280;44258;51.288;12.068;2022-09-09T06:55:44;100009.47;;;17.52;56.68
58471;BME280;44258;51.288;12.068;2022-09-09T06:58:11;100014.66;;;17.55;57.43
58471;BME280;44258;51.288;12.068;2022-09-09T07:00:39;100018.78;;;17.49;57.50
58471;BME280;44258;51.288;12.068;2022-09-09T07:03:05;100021.19;;;17.52;57.79
58471;BME280;44258;51.288;12.068;2022-09-09T07:05:32;100018.13;;;17.86;58.17
58471;BME280;44258;51.288;12.068;2022-09-09T07:07:59;100024.06;;;18.21;57.39
58471;BME280;44258;51.288;12.068;2022-09-09T07:10:26;100034.66;;;18.53;56.03
58471;BME280;44258;51.288;12.068;2022-09-09T07:12:52;100032.47;;;18.76;55.67
58471;BME280;44258;51.288;12.068;2022-09-09T07:15:20;100026.03;;;18.77;54.36
58471;BME280;44258;51.288;12.068;2022-09-09T07:17:49;100033.72;;;19.01;55.13
58471;BME280;44258;51.288;12.068;2022-09-09T07:20:15;100025.41;;;19.03;54.49
58471;BME280;44258;51.288;12.068;2022-09-09T07:22:42;100029.63;;;19.25;54.66
58471;BME280;44258;51.288;12.068;2022-09-09T07:25:08;100034.13;;;19.44;53.67
58471;BME280;44258;51.288;12.068;2022-09-09T07:27:35;100034.31;;;19.60;53.45
58471;BME280;44258;51.288;12.068;2022-09-09T07:30:02;100029.13;;;19.67;53.74
58471;BME280;44258;51.288;12.068;2022-09-09T07:32:29;100035.72;;;19.74;53.48
58471;BME280;44258;51.288;12.068;2022-09-09T07:34:57;100041.44;;;19.99;53.47
58471;BME280;44258;51.288;12.068;2022-09-09T07:37:25;100041.69;;;20.05;52.30
58471;BME280;44258;51.288;12.068;2022-09-09T07:39:51;100039.81;;;20.06;52.99
58471;BME280;44258;51.288;12.068;2022-09-09T07:42:18;100041.16;;;20.20;52.81
58471;BME280;44258;51.288;12.068;2022-09-09T07:44:45;100043.97;;;20.28;52.95
58471;BME280;44258;51.288;12.068;2022-09-09T07:47:11;100051.53;;;20.34;52.44
58471;BME280;44258;51.288;12.068;2022-09-09T07:49:38;100049.88;;;20.23;52.55
58471;BME280;44258;51.288;12.068;2022-09-09T07:52:06;100051.34;;;20.36;52.52
58471;BME280;44258;51.288;12.068;2022-09-09T07:54:32;100052.59;;;20.41;52.52
58471;BME280;44258;51.288;12.068;2022-09-09T07:56:59;100057.75;;;20.44;52.33
58471;BME280;44258;51.288;12.068;2022-09-09T07:59:25;100048.16;;;20.40;52.13
58471;BME280;44258;51.288;12.068;2022-09-09T08:01:55;100047.38;;;20.48;51.45
58471;BME280;44258;51.288;12.068;2022-09-09T08:04:23;100051.34;;;20.36;51.94
58471;BME280;44258;51.288;12.068;2022-09-09T08:06:51;100050.19;;;20.38;51.52
58471;BME280;44258;51.288;12.068;2022-09-09T08:09:21;100045.44;;;20.40;51.84
58471;BME280;44258;51.288;12.068;2022-09-09T08:11:50;100048.78;;;20.70;51.62
58471;BME280;44258;51.288;12.068;2022-09-09T08:14:17;100048.84;;;21.04;50.01
58471;BME280;44258;51.288;12.068;2022-09-09T08:16:44;100052.28;;;21.32;50.16
58471;BME280;44258;51.288;12.068;2022-09-09T08:19:12;100046.19;;;21.47;49.41
58471;BME280;44258;51.288;12.068;2022-09-09T08:21:41;100058.41;;;21.61;49.38
58471;BME280;44258;51.288;12.068;2022-09-09T08:24:09;100055.28;;;21.98;49.01
58471;BME280;44258;51.288;12.068;2022-09-09T08:26:39;100058.97;;;22.23;47.82
58471;BME280;44258;51.288;12.068;2022-09-09T08:29:07;100058.78;;;22.41;47.25
58471;BME280;44258;51.288;12.068;2022-09-09T08:31:36;100057.25;;;22.55;46.56
58471;BME280;44258;51.288;12.068;2022-09-09T08:34:04;100057.28;;;22.71;47.49
58471;BME280;44258;51.288;12.068;2022-09-09T08:36:32;100055.03;;;22.67;46.71
58471;BME280;44258;51.288;12.068;2022-09-09T08:39:00;100057.25;;;22.39;46.59
58471;BME280;44258;51.288;12.068;2022-09-09T08:41:59;100048.56;;;22.76;46.37
58471;BME280;44258;51.288;12.068;2022-09-09T08:44:37;100052.81;;;23.03;46.75
58471;BME280;44258;51.288;12.068;2022-09-09T08:47:17;100055.03;;;23.00;46.21
58471;BME280;44258;51.288;12.068;2022-09-09T08:50:02;100050.94;;;22.87;46.37
58471;BME280;44258;51.288;12.068;2022-09-09T08:52:38;100057.78;;;22.59;45.58
58471;BME280;44258;51.288;12.068;2022-09-09T08:55:15;100053.50;;;22.23;46.16
58471;BME280;44258;51.288;12.068;2022-09-09T08:57:49;100057.41;;;22.29;46.32
58471;BME280;44258;51.288;12.068;2022-09-09T09:00:17;100053.97;;;22.19;46.19
58471;BME280;44258;51.288;12.068;2022-09-09T09:02:48;100059.75;;;21.99;46.32
58471;BME280;44258;51.288;12.068;2022-09-09T09:05:26;100048.41;;;21.86;46.89
58471;BME280;44258;51.288;12.068;2022-09-09T09:08:05;100052.31;;;21.83;47.20
58471;BME280;44258;51.288;12.068;2022-09-09T09:10:45;100061.59;;;21.82;47.34
58471;BME280;44258;51.288;12.068;2022-09-09T09:13:18;100064.25;;;21.74;47.77
58471;BME280;44258;51.288;12.068;2022-09-09T09:15:50;100059.91;;;21.55;47.01
58471;BME280;44258;51.288;12.068;2022-09-09T09:18:18;100059.88;;;21.47;47.46
58471;BME280;44258;51.288;12.068;2022-09-09T09:20:50;100057.25;;;21.37;47.76
58471;BME280;44258;51.288;12.068;2022-09-09T09:23:22;100057.00;;;21.48;47.94
58471;BME280;44258;51.288;12.068;2022-09-09T09:25:51;100059.94;;;21.63;47.58
58471;BME280;44258;51.288;12.068;2022-09-09T09:28:23;100055.88;;;21.76;47.79
58471;BME280;44258;51.288;12.068;2022-09-09T09:30:55;100054.13;;;22.01;47.05
58471;BME280;44258;51.288;12.068;2022-09-09T09:33:26;100056.28;;;21.89;46.89
58471;BME280;44258;51.288;12.068;2022-09-09T09:35:54;100059.66;;;22.25;46.02
58471;BME280;44258;51.288;12.068;2022-09-09T09:38:22;100055.16;;;22.08;45.76
58471;BME280;44258;51.288;12.068;2022-09-09T09:40:50;100054.50;;;22.14;46.23
58471;BME280;44258;51.288;12.068;2022-09-09T09:43:22;100063.22;;;22.09;46.36
58471;BME280;44258;51.288;12.068;2022-09-09T09:45:50;100063.53;;;22.06;46.31
58471;BME280;44258;51.288;12.068;2022-09-09T09:48:17;100057.91;;;22.16;46.28
58471;BME280;44258;51.288;12.068;2022-09-09T09:50:48;100062.72;;;22.30;46.44
58471;BME280;44258;51.288;12.068;2022-09-09T09:53:20;100063.44;;;22.49;46.02
58471;BME280;44258;51.288;12.068;2022-09-09T09:55:52;100066.16;;;22.65;46.44
58471;BME280;44258;51.288;12.068;2022-09-09T09:58:21;100066.19;;;22.73;45.18
58471;BME280;44258;51.288;12.068;2022-09-09T10:00:48;100066.38;;;22.97;45.24
58471;BME280;44258;51.288;12.068;2022-09-09T10:03:22;100065.97;;;23.16;44.79
58471;BME280;44258;51.288;12.068;2022-09-09T10:05:49;100075.44;;;23.05;44.87
58471;BME280;44258;51.288;12.068;2022-09-09T10:08:16;100067.06;;;22.90;44.68
58471;BME280;44258;51.288;12.068;2022-09-09T10:10:54;100060.19;;;23.03;45.11
58471;BME280;44258;51.288;12.068;2022-09-09T10:13:27;100065.34;;;22.81;44.93
58471;BME280;44258;51.288;12.068;2022-09-09T10:16:08;100064.31;;;22.90;44.56
58471;BME280;44258;51.288;12.068;2022-09-09T10:18:47;100059.31;;;22.69;44.61
58471;BME280;44258;51.288;12.068;2022-09-09T10:21:31;100056.28;;;22.72;43.87
58471;BME280;44258;51.288;12.068;2022-09-09T10:27:03;100053.69;;;22.96;44.15
58471;BME280;44258;51.288;12.068;2022-09-09T10:29:54;100053.66;;;23.12;43.87
58471;BME280;44258;51.288;12.068;2022-09-09T10:32:42;100037.81;;;23.30;44.07
58471;BME280;44258;51.288;12.068;2022-09-09T10:35:29;100042.16;;;23.25;42.56
58471;BME280;44258;51.288;12.068;2022-09-09T10:38:12;100041.78;;;23.28;43.38
58471;BME280;44258;51.288;12.068;2022-09-09T10:40:44;100034.78;;;23.17;43.61
58471;BME280;44258;51.288;12.068;2022-09-09T10:43:25;100031.16;;;23.41;43.77
58471;BME280;44258;51.288;12.068;2022-09-09T10:46:01;100035.72;;;23.88;42.89
58471;BME280;44258;51.288;12.068;2022-09-09T10:48:37;100033.84;;;23.49;42.25
58471;BME280;44258;51.288;12.068;2022-09-09T10:51:20;100018.84;;;23.68;42.56
58471;BME280;44258;51.288;12.068;2022-09-09T10:53:57;100024.81;;;23.72;42.49
58471;BME280;44258;51.288;12.068;2022-09-09T10:56:28;100033.69;;;23.43;42.11
58471;BME280;44258;51.288;12.068;2022-09-09T10:58:58;100033.34;;;23.46;42.87
58471;BME280;44258;51.288;12.068;2022-09-09T11:01:31;100032.38;;;23.70;42.58
58471;BME280;44258;51.288;12.068;2022-09-09T11:04:03;100020.53;;;23.69;42.39
58471;BME280;44258;51.288;12.068;2022-09-09T11:06:35;100031.59;;;23.53;42.60
58471;BME280;44258;51.288;12.068;2022-09-09T11:09:04;100024.72;;;23.57;42.40
58471;BME280;44258;51.288;12.068;2022-09-09T11:11:36;100018.25;;;23.81;42.26
58471;BME280;44258;51.288;12.068;2022-09-09T11:14:11;100017.25;;;23.74;41.65
58471;BME280;44258;51.288;12.068;2022-09-09T11:16:47;100012.28;;;23.78;40.89
58471;BME280;44258;51.288;12.068;2022-09-09T11:19:19;100016.00;;;23.85;41.16
58471;BME280;44258;51.288;12.068;2022-09-09T11:21:55;100011.81;;;23.97;41.45
58471;BME280;44258;51.288;12.068;2022-09-09T11:24:26;100013.63;;;24.13;40.94
58471;BME280;44258;51.288;12.068;2022-09-09T11:26:57;100009.78;;;23.91;41.45
58471;BME280;44258;51.288;12.068;2022-09-09T11:29:45;100010.25;;;23.63;41.66
58471;BME280;44258;51.288;12.068;2022-09-09T11:32:39;100006.59;;;23.79;40.79
58471;BME280;44258;51.288;12.068;2022-09-09T11:35:21;100012.16;;;23.63;41.39
58471;BME280;44258;51.288;12.068;2022-09-09T11:40:58;100012.97;;;23.24;42.24
58471;BME280;44258;51.288;12.068;2022-09-09T11:43:29;100015.81;;;22.99;42.33
58471;BME280;44258;51.288;12.068;2022-09-09T11:45:58;100014.72;;;23.08;42.82
58471;BME280;44258;51.288;12.068;2022-09-09T11:48:31;100018.72;;;22.98;42.77
58471;BME280;44258;51.288;12.068;2022-09-09T11:51:01;100012.47;;;23.20;43.01
58471;BME280;44258;51.288;12.068;2022-09-09T11:53:31;100008.81;;;23.36;42.15
58471;BME280;44258;51.288;12.068;2022-09-09T11:56:06;99998.00;;;23.43;41.70
58471;BME280;44258;51.288;12.068;2022-09-09T11:58:37;100007.44;;;23.48;41.63
58471;BME280;44258;51.288;12.068;2022-09-09T12:01:26;100014.78;;;23.56;42.32
58471;BME280;44258;51.288;12.068;2022-09-09T12:04:14;100010.13;;;23.57;41.31
58471;BME280;44258;51.288;12.068;2022-09-09T12:06:44;100011.22;;;23.47;41.35
58471;BME280;44258;51.288;12.068;2022-09-09T12:09:19;100012.75;;;23.50;40.21
58471;BME280;44258;51.288;12.068;2022-09-09T12:11:48;100006.50;;;23.64;40.29
58471;BME280;44258;51.288;12.068;2022-09-09T12:14:23;100004.16;;;23.84;39.83
58471;BME280;44258;51.288;12.068;2022-09-09T12:17:09;100003.84;;;23.79;40.13
58471;BME280;44258;51.288;12.068;2022-09-09T12:19:37;100002.75;;;23.88;41.00
58471;BME280;44258;51.288;12.068;2022-09-09T12:22:07;99993.88;;;24.09;38.49
58471;BME280;44258;51.288;12.068;2022-09-09T12:24:43;99996.28;;;24.13;38.46
58471;BME280;44258;51.288;12.068;2022-09-09T12:27:18;99989.78;;;24.05;37.82
58471;BME280;44258;51.288;12.068;2022-09-09T12:29:52;99984.09;;;24.07;38.34
58471;BME280;44258;51.288;12.068;2022-09-09T12:32:23;99990.53;;;24.22;39.29
58471;BME280;44258;51.288;12.068;2022-09-09T12:34:54;99992.13;;;24.17;38.21
58471;BME280;44258;51.288;12.068;2022-09-09T12:37:27;99980.91;;;23.95;38.72
58471;BME280;44258;51.288;12.068;2022-09-09T12:39:56;99982.44;;;23.98;38.41
58471;BME280;44258;51.288;12.068;2022-09-09T12:42:23;99986.72;;;24.08;38.11
58471;BME280;44258;51.288;12.068;2022-09-09T12:44:51;99986.16;;;24.13;37.79
58471;BME280;44258;51.288;12.068;2022-09-09T12:47:20;99979.25;;;24.17;38.01
58471;BME280;44258;51.288;12.068;2022-09-09T12:49:48;99969.16;;;24.09;38.52
58471;BME280;44258;51.288;12.068;2022-09-09T12:52:24;99976.03;;;23.82;38.07
58471;BME280;44258;51.288;12.068;2022-09-09T12:54:55;99972.50;;;23.97;38.15
58471;BME280;44258;51.288;12.068;2022-09-09T12:57:24;99973.59;;;23.87;38.21
58471;BME280;44258;51.288;12.068;2022-09-09T12:59:51;99973.72;;;23.94;38.67
58471;BME280;44258;51.288;12.068;2022-09-09T13:02:21;99969.75;;;23.97;37.98
58471;BME280;44258;51.288;12.068;2022-09-09T13:04:48;99976.50;;;24.17;37.77
58471;BME280;44258;51.288;12.068;2022-09-09T13:07:17;99964.38;;;24.26;38.60
58471;BME280;44258;51.288;12.068;2022-09-09T13:09:45;99968.31;;;24.32;38.10